sensor_id;sensor_type;location;lat;lon;timestamp;temperature;humidity
5419;DHT22;2732;52.092;11.556;2024-01-15T00:01:36;1.30;99.90
5419;DHT22;2732;52.092;11.556;2024-01-15T00:06:37;1.30;99.90
5419;DHT22;2732;52.092;11.556;2024-01-15T00:11:38;1.40;99.90
5419;DHT22;2732;52.092;11.556;2024-01-15T00:16:40;1.30;99.90
5419;DHT22;2732;52.092;11.556;2024-01-15T00:21:41;1.40;99.90
5419;DHT22;2732;52.092;11.556;2024-01-15T00:26:42;1.40;99.90
5419;DHT22;2732;52.092;11.556;2024-01-15T00:31:44;1.30;99.90
5419;DHT22;2732;52.092;11.556;2024-01-15T00:36:44;1.40;99.90
5419;DHT22;2732;52.092;11.556;2024-01-15T00:41:45;1.40;99.90
5419;DHT22;2732;52.092;11.556;2024-01-15T00:46:46;1.40;99.90
5419;DHT22;2732;52.092;11.556;2024-01-15T00:51:47;1.30;99.90
5419;DHT22;2732;52.092;11.556;2024-01-15T00:56:48;1.30;99.90
5419;DHT22;2732;52.092;11.556;2024-01-15T01:01:48;1.40;99.90
5419;DHT22;2732;52.092;11.556;2024-01-15T01:06:49;1.30;99.90
5419;DHT22;2732;52.092;11.556;2024-01-15T01:11:50;1.30;99.90
5419;DHT22;2732;52.092;11.556;2024-01-15T01:16:50;1.30;99.90
5419;DHT22;2732;52.092;11.556;2024-01-15T01:21:51;1.30;99.90
5419;DHT22;2732;52.092;11.556;2024-01-15T01:26:51;1.30;99.90
5419;DHT22;2732;52.092;11.556;2024-01-15T01:31:52;1.30;99.90
5419;DHT22;2732;52.092;11.556;2024-01-15T01:36:52;1.30;99.90
5419;DHT22;2732;52.092;11.556;2024-01-15T01:41:53;1.30;99.90
5419;DHT22;2732;52.092;11.556;2024-01-15T01:46:53;1.30;99.90
5419;DHT22;2732;52.092;11.556;2024-01-15T01:51:58;1.20;99.90
5419;DHT22;2732;52.092;11.556;2024-01-15T01:57:02;1.20;99.90
5419;DHT22;2732;52.092;11.556;2024-01-15T02:02:04;1.20;99.90
5419;DHT22;2732;52.092;11.556;2024-01-15T02:07:05;1.20;99.90
5419;DHT22;2732;52.092;11.556;2024-01-15T02:12:06;1.20;99.90
5419;DHT22;2732;52.092;11.556;2024-01-15T02:17:07;1.20;99.90
5419;DHT22;2732;52.092;11.556;2024-01-15T02:22:08;1.10;99.90
5419;DHT22;2732;52.092;11.556;2024-01-15T02:27:09;1.10;99.90
5419;DHT22;2732;52.092;11.556;2024-01-15T02:32:09;1.10;99.90
5419;DHT22;2732;52.092;11.556;2024-01-15T02:37:10;1.00;99.90
5419;DHT22;2732;52.092;11.556;2024-01-15T02:42:11;1.00;99.90
5419;DHT22;2732;52.092;11.556;2024-01-15T02:47:11;1.00;99.90
5419;DHT22;2732;52.092;11.556;2024-01-15T02:52:12;0.90;99.90
5419;DHT22;2732;52.092;11.556;2024-01-15T02:57:12;1.00;99.90
5419;DHT22;2732;52.092;11.556;2024-01-15T03:02:13;1.00;99.90
5419;DHT22;2732;52.092;11.556;2024-01-15T03:07:13;1.00;99.90
5419;DHT22;2732;52.092;11.556;2024-01-15T03:12:14;0.90;99.90
5419;DHT22;2732;52.092;11.556;2024-01-15T03:17:15;1.00;99.90
5419;DHT22;2732;52.092;11.556;2024-01-15T03:22:16;0.90;99.90
5419;DHT22;2732;52.092;11.556;2024-01-15T03:27:18;0.90;99.90
5419;DHT22;2732;52.092;11.556;2024-01-15T03:32:18;0.90;99.90
5419;DHT22;2732;52.092;11.556;2024-01-15T03:37:20;0.90;99.90
5419;DHT22;2732;52.092;11.556;2024-01-15T03:42:20;0.90;99.90
5419;DHT22;2732;52.092;11.556;2024-01-15T03:47:21;0.90;99.90
5419;DHT22;2732;52.092;11.556;2024-01-15T03:52:21;0.90;99.90
5419;DHT22;2732;52.092;11.556;2024-01-15T03:57:22;0.90;99.90
5419;DHT22;2732;52.092;11.556;2024-01-15T04:02:22;0.90;99.90
5419;DHT22;2732;52.092;11.556;2024-01-15T04:07:23;1.00;99.90
5419;DHT22;2732;52.092;11.556;2024-01-15T04:12:24;1.00;99.90
5419;DHT22;2732;52.092;11.556;2024-01-15T04:17:26;1.00;99.90
5419;DHT22;2732;52.092;11.556;2024-01-15T04:22:27;1.00;99.90
5419;DHT22;2732;52.092;11.556;2024-01-15T04:27:28;1.00;99.90
5419;DHT22;2732;52.092;11.556;2024-01-15T04:32:29;1.10;99.90
5419;DHT22;2732;52.092;11.556;2024-01-15T04:37:29;1.10;99.90
5419;DHT22;2732;52.092;11.556;2024-01-15T04:42:30;1.10;99.90
5419;DHT22;2732;52.092;11.556;2024-01-15T04:47:31;1.10;99.90
5419;DHT22;2732;52.092;11.556;2024-01-15T04:52:31;1.10;99.90
5419;DHT22;2732;52.092;11.556;2024-01-15T04:57:32;1.20;99.90
5419;DHT22;2732;52.092;11.556;2024-01-15T05:02:32;1.20;99.90
5419;DHT22;2732;52.092;11.556;2024-01-15T05:07:33;1.20;99.90
5419;DHT22;2732;52.092;11.556;2024-01-15T05:12:34;1.20;99.90
5419;DHT22;2732;52.092;11.556;2024-01-15T05:17:35;1.10;99.90
5419;DHT22;2732;52.092;11.556;2024-01-15T05:22:35;1.10;99.90
5419;DHT22;2732;52.092;11.556;2024-01-15T05:27:36;1.10;99.90
5419;DHT22;2732;52.092;11.556;2024-01-15T05:32:36;1.10;99.90
5419;DHT22;2732;52.092;11.556;2024-01-15T05:37:38;1.10;99.90
5419;DHT22;2732;52.092;11.556;2024-01-15T05:42:41;1.10;99.90
5419;DHT22;2732;52.092;11.556;2024-01-15T05:47:42;1.10;99.90
5419;DHT22;2732;52.092;11.556;2024-01-15T05:52:44;1.00;99.90
5419;DHT22;2732;52.092;11.556;2024-01-15T05:57:45;1.00;99.90
5419;DHT22;2732;52.092;11.556;2024-01-15T06:02:46;1.00;99.90
5419;DHT22;2732;52.092;11.556;2024-01-15T06:07:47;1.00;99.90
5419;DHT22;2732;52.092;11.556;2024-01-15T06:12:48;0.90;99.90
5419;DHT22;2732;52.092;11.556;2024-01-15T06:17:48;0.90;99.90
5419;DHT22;2732;52.092;11.556;2024-01-15T06:22:49;0.90;99.90
5419;DHT22;2732;52.092;11.556;2024-01-15T06:27:49;0.90;99.90
5419;DHT22;2732;52.092;11.556;2024-01-15T06:32:50;0.90;99.90
5419;DHT22;2732;52.092;11.556;2024-01-15T06:37:51;0.90;99.90
5419;DHT22;2732;52.092;11.556;2024-01-15T06:42:51;0.90;99.90
5419;DHT22;2732;52.092;11.556;2024-01-15T06:47:52;0.90;99.90
5419;DHT22;2732;52.092;11.556;2024-01-15T06:52:52;0.90;99.90
5419;DHT22;2732;52.092;11.556;2024-01-15T06:57:53;0.90;99.90
5419;DHT22;2732;52.092;11.556;2024-01-15T07:02:54;0.90;99.90
5419;DHT22;2732;52.092;11.556;2024-01-15T07:07:54;0.90;99.90
5419;DHT22;2732;52.092;11.556;2024-01-15T07:12:55;0.90;99.90
5419;DHT22;2732;52.092;11.556;2024-01-15T07:17:56;0.90;99.90
5419;DHT22;2732;52.092;11.556;2024-01-15T07:22:57;0.90;99.90
5419;DHT22;2732;52.092;11.556;2024-01-15T07:27:57;0.90;99.90
5419;DHT22;2732;52.092;11.556;2024-01-15T07:32:58;0.90;99.90
5419;DHT22;2732;52.092;11.556;2024-01-15T07:37:59;0.90;99.90
5419;DHT22;2732;52.092;11.556;2024-01-15T07:42:59;0.90;99.90
5419;DHT22;2732;52.092;11.556;2024-01-15T07:48:00;0.90;99.90
5419;DHT22;2732;52.092;11.556;2024-01-15T07:53:01;1.00;99.90
5419;DHT22;2732;52.092;11.556;2024-01-15T07:58:02;1.00;99.90
5419;DHT22;2732;52.092;11.556;2024-01-15T08:03:03;1.00;99.90
5419;DHT22;2732;52.092;11.556;2024-01-15T08:08:05;1.00;99.90
5419;DHT22;2732;52.092;11.556;2024-01-15T08:13:06;1.00;99.90
5419;DHT22;2732;52.092;11.556;2024-01-15T08:18:08;1.10;99.90
5419;DHT22;2732;52.092;11.556;2024-01-15T08:23:09;1.00;99.90
5419;DHT22;2732;52.092;11.556;2024-01-15T08:28:10;1.10;99.90
5419;DHT22;2732;52.092;11.556;2024-01-15T08:33:10;1.10;99.90
5419;DHT22;2732;52.092;11.556;2024-01-15T08:38:11;1.10;99.90
5419;DHT22;2732;52.092;11.556;2024-01-15T08:43:12;1.20;99.90
5419;DHT22;2732;52.092;11.556;2024-01-15T08:48:12;1.20;99.90
5419;DHT22;2732;52.092;11.556;2024-01-15T08:53:13;1.30;99.90
5419;DHT22;2732;52.092;11.556;2024-01-15T08:58:15;1.30;99.90
5419;DHT22;2732;52.092;11.556;2024-01-15T09:03:15;1.40;99.90
5419;DHT22;2732;52.092;11.556;2024-01-15T09:08:17;1.40;99.90
5419;DHT22;2732;52.092;11.556;2024-01-15T09:13:17;1.40;99.90
5419;DHT22;2732;52.092;11.556;2024-01-15T09:18:18;1.40;99.90
5419;DHT22;2732;52.092;11.556;2024-01-15T09:23:18;1.50;99.90
5419;DHT22;2732;52.092;11.556;2024-01-15T09:28:19;1.60;99.90
5419;DHT22;2732;52.092;11.556;2024-01-15T09:33:20;1.70;99.90
5419;DHT22;2732;52.092;11.556;2024-01-15T09:38:20;1.70;99.90
5419;DHT22;2732;52.092;11.556;2024-01-15T09:43:21;1.70;99.90
5419;DHT22;2732;52.092;11.556;2024-01-15T09:48:22;1.80;99.90
5419;DHT22;2732;52.092;11.556;2024-01-15T09:53:23;1.90;99.90
5419;DHT22;2732;52.092;11.556;2024-01-15T09:58:25;2.00;99.90
5419;DHT22;2732;52.092;11.556;2024-01-15T10:03:26;2.00;99.90
5419;DHT22;2732;52.092;11.556;2024-01-15T10:08:27;2.10;99.90
5419;DHT22;2732;52.092;11.556;2024-01-15T10:13:29;2.20;99.90
5419;DHT22;2732;52.092;11.556;2024-01-15T10:18:30;2.10;99.90
5419;DHT22;2732;52.092;11.556;2024-01-15T10:23:32;2.10;99.90
5419;DHT22;2732;52.092;11.556;2024-01-15T10:28:32;2.10;99.90
5419;DHT22;2732;52.092;11.556;2024-01-15T10:33:33;2.20;99.90
5419;DHT22;2732;52.092;11.556;2024-01-15T10:38:34;2.20;99.90
5419;DHT22;2732;52.092;11.556;2024-01-15T10:43:34;2.20;99.90
5419;DHT22;2732;52.092;11.556;2024-01-15T10:48:35;2.20;99.90
5419;DHT22;2732;52.092;11.556;2024-01-15T10:53:38;2.20;99.90
5419;DHT22;2732;52.092;11.556;2024-01-15T10:58:42;2.30;99.90
5419;DHT22;2732;52.092;11.556;2024-01-15T11:03:44;2.40;99.90
5419;DHT22;2732;52.092;11.556;2024-01-15T11:08:51;2.40;99.90
5419;DHT22;2732;52.092;11.556;2024-01-15T11:13:52;2.50;99.90
5419;DHT22;2732;52.092;11.556;2024-01-15T11:23:59;2.40;99.90
5419;DHT22;2732;52.092;11.556;2024-01-15T11:29:02;2.40;99.90
5419;DHT22;2732;52.092;11.556;2024-01-15T11:34:04;2.40;99.90
5419;DHT22;2732;52.092;11.556;2024-01-15T11:44:27;2.40;99.90
5419;DHT22;2732;52.092;11.556;2024-01-15T11:54:44;2.60;99.90
5419;DHT22;2732;52.092;11.556;2024-01-15T12:00:09;2.70;99.90
5419;DHT22;2732;52.092;11.556;2024-01-15T12:05:13;2.70;99.90
5419;DHT22;2732;52.092;11.556;2024-01-15T12:10:20;2.70;99.90
5419;DHT22;2732;52.092;11.556;2024-01-15T12:15:21;2.70;99.90
5419;DHT22;2732;52.092;11.556;2024-01-15T12:20:23;2.60;99.90
5419;DHT22;2732;52.092;11.556;2024-01-15T12:25:27;2.60;99.90
5419;DHT22;2732;52.092;11.556;2024-01-15T12:30:30;2.70;99.90
5419;DHT22;2732;52.092;11.556;2024-01-15T12:35:35;2.80;99.90
5419;DHT22;2732;52.092;11.556;2024-01-15T12:40:35;2.80;99.90
5419;DHT22;2732;52.092;11.556;2024-01-15T12:45:36;3.00;99.90
5419;DHT22;2732;52.092;11.556;2024-01-15T12:50:37;2.90;99.90
5419;DHT22;2732;52.092;11.556;2024-01-15T12:55:38;3.00;99.90
5419;DHT22;2732;52.092;11.556;2024-01-15T13:00:39;3.00;99.90
5419;DHT22;2732;52.092;11.556;2024-01-15T13:05:41;3.10;99.90
5419;DHT22;2732;52.092;11.556;2024-01-15T13:10:41;3.00;99.90
5419;DHT22;2732;52.092;11.556;2024-01-15T13:15:45;2.90;99.90
5419;DHT22;2732;52.092;11.556;2024-01-15T13:20:45;2.90;99.90
5419;DHT22;2732;52.092;11.556;2024-01-15T13:25:46;2.90;99.90
5419;DHT22;2732;52.092;11.556;2024-01-15T13:30:47;2.80;99.90
5419;DHT22;2732;52.092;11.556;2024-01-15T13:35:48;2.80;99.90
5419;DHT22;2732;52.092;11.556;2024-01-15T13:40:51;2.80;99.90
5419;DHT22;2732;52.092;11.556;2024-01-15T13:45:51;2.80;99.90
5419;DHT22;2732;52.092;11.556;2024-01-15T13:50:53;2.80;99.90
5419;DHT22;2732;52.092;11.556;2024-01-15T13:55:53;2.70;99.90
5419;DHT22;2732;52.092;11.556;2024-01-15T14:00:54;2.70;99.90
5419;DHT22;2732;52.092;11.556;2024-01-15T14:05:56;2.70;99.90
5419;DHT22;2732;52.092;11.556;2024-01-15T14:10:56;2.60;99.90
5419;DHT22;2732;52.092;11.556;2024-01-15T14:15:57;2.60;99.90
5419;DHT22;2732;52.092;11.556;2024-01-15T14:20:58;2.50;99.90
5419;DHT22;2732;52.092;11.556;2024-01-15T14:25:59;2.50;99.90
5419;DHT22;2732;52.092;11.556;2024-01-15T14:30:59;2.50;99.90
5419;DHT22;2732;52.092;11.556;2024-01-15T14:36:00;2.40;99.90
5419;DHT22;2732;52.092;11.556;2024-01-15T14:41:01;2.40;99.90
5419;DHT22;2732;52.092;11.556;2024-01-15T14:46:02;2.30;99.90
5419;DHT22;2732;52.092;11.556;2024-01-15T14:51:02;2.30;99.90
5419;DHT22;2732;52.092;11.556;2024-01-15T14:56:03;2.20;99.90
5419;DHT22;2732;52.092;11.556;2024-01-15T15:01:04;2.20;99.90
5419;DHT22;2732;52.092;11.556;2024-01-15T15:06:05;2.10;99.90
5419;DHT22;2732;52.092;11.556;2024-01-15T15:11:09;2.00;99.90
5419;DHT22;2732;52.092;11.556;2024-01-15T15:16:12;1.90;99.90
5419;DHT22;2732;52.092;11.556;2024-01-15T15:21:13;1.90;99.90
5419;DHT22;2732;52.092;11.556;2024-01-15T15:26:13;1.80;99.90
5419;DHT22;2732;52.092;11.556;2024-01-15T15:31:17;1.80;99.90
5419;DHT22;2732;52.092;11.556;2024-01-15T15:36:21;1.70;99.90
5419;DHT22;2732;52.092;11.556;2024-01-15T15:41:21;1.70;99.90
5419;DHT22;2732;52.092;11.556;2024-01-15T15:46:31;1.60;99.90
5419;DHT22;2732;52.092;11.556;2024-01-15T15:51:33;1.50;99.90
5419;DHT22;2732;52.092;11.556;2024-01-15T15:56:36;1.50;99.90
5419;DHT22;2732;52.092;11.556;2024-01-15T16:01:38;1.50;99.90
5419;DHT22;2732;52.092;11.556;2024-01-15T16:06:39;1.40;99.90
5419;DHT22;2732;52.092;11.556;2024-01-15T16:11:40;1.40;99.90
5419;DHT22;2732;52.092;11.556;2024-01-15T16:16:40;1.40;99.90
5419;DHT22;2732;52.092;11.556;2024-01-15T16:21:42;1.30;99.90
5419;DHT22;2732;52.092;11.556;2024-01-15T16:26:43;1.30;99.90
5419;DHT22;2732;52.092;11.556;2024-01-15T16:31:44;1.30;99.90
5419;DHT22;2732;52.092;11.556;2024-01-15T16:36:44;1.20;99.90
5419;DHT22;2732;52.092;11.556;2024-01-15T16:41:46;1.20;99.90
5419;DHT22;2732;52.092;11.556;2024-01-15T16:46:46;1.20;99.90
5419;DHT22;2732;52.092;11.556;2024-01-15T16:51:47;1.20;99.90
5419;DHT22;2732;52.092;11.556;2024-01-15T16:56:48;1.20;99.90
5419;DHT22;2732;52.092;11.556;2024-01-15T17:01:49;1.10;99.90
5419;DHT22;2732;52.092;11.556;2024-01-15T17:06:50;1.10;99.90
5419;DHT22;2732;52.092;11.556;2024-01-15T17:11:50;1.10;99.90
5419;DHT22;2732;52.092;11.556;2024-01-15T17:16:51;1.10;99.90
5419;DHT22;2732;52.092;11.556;2024-01-15T17:21:52;1.10;99.90
5419;DHT22;2732;52.092;11.556;2024-01-15T17:26:53;1.10;99.90
5419;DHT22;2732;52.092;11.556;2024-01-15T17:31:54;1.10;99.90
5419;DHT22;2732;52.092;11.556;2024-01-15T17:36:55;1.10;99.90
5419;DHT22;2732;52.092;11.556;2024-01-15T17:41:56;1.10;99.90
5419;DHT22;2732;52.092;11.556;2024-01-15T17:46:58;1.10;99.90
5419;DHT22;2732;52.092;11.556;2024-01-15T17:51:59;1.00;99.90
5419;DHT22;2732;52.092;11.556;2024-01-15T17:56:59;1.10;99.90
5419;DHT22;2732;52.092;11.556;2024-01-15T18:02:00;1.10;99.90
5419;DHT22;2732;52.092;11.556;2024-01-15T18:07:02;1.00;99.90
5419;DHT22;2732;52.092;11.556;2024-01-15T18:12:02;1.00;99.90
5419;DHT22;2732;52.092;11.556;2024-01-15T18:17:03;1.00;99.90
5419;DHT22;2732;52.092;11.556;2024-01-15T18:22:04;1.00;99.90
5419;DHT22;2732;52.092;11.556;2024-01-15T18:27:05;1.00;99.90
5419;DHT22;2732;52.092;11.556;2024-01-15T18:32:06;1.00;99.90
5419;DHT22;2732;52.092;11.556;2024-01-15T18:37:07;1.00;99.90
5419;DHT22;2732;52.092;11.556;2024-01-15T18:42:08;1.00;99.90
5419;DHT22;2732;52.092;11.556;2024-01-15T18:47:09;1.00;99.90
5419;DHT22;2732;52.092;11.556;2024-01-15T18:52:10;1.00;99.90
5419;DHT22;2732;52.092;11.556;2024-01-15T18:57:14;1.00;99.90
5419;DHT22;2732;52.092;11.556;2024-01-15T19:02:15;1.00;99.90
5419;DHT22;2732;52.092;11.556;2024-01-15T19:07:15;1.00;99.90
5419;DHT22;2732;52.092;11.556;2024-01-15T19:12:16;1.00;99.90
5419;DHT22;2732;52.092;11.556;2024-01-15T19:17:17;1.00;99.90
5419;DHT22;2732;52.092;11.556;2024-01-15T19:22:17;1.00;99.90
5419;DHT22;2732;52.092;11.556;2024-01-15T19:27:19;0.90;99.90
5419;DHT22;2732;52.092;11.556;2024-01-15T19:32:19;0.90;99.90
5419;DHT22;2732;52.092;11.556;2024-01-15T19:37:20;0.90;99.90
5419;DHT22;2732;52.092;11.556;2024-01-15T19:42:22;0.90;99.90
5419;DHT22;2732;52.092;11.556;2024-01-15T19:47:23;0.90;99.90
5419;DHT22;2732;52.092;11.556;2024-01-15T19:52:23;0.90;99.90
5419;DHT22;2732;52.092;11.556;2024-01-15T19:57:24;0.90;99.90
5419;DHT22;2732;52.092;11.556;2024-01-15T20:02:25;0.90;99.90
5419;DHT22;2732;52.092;11.556;2024-01-15T20:07:26;0.90;99.90
5419;DHT22;2732;52.092;11.556;2024-01-15T20:12:27;0.90;99.90
5419;DHT22;2732;52.092;11.556;2024-01-15T20:17:28;0.80;99.90
5419;DHT22;2732;52.092;11.556;2024-01-15T20:22:28;0.80;99.90
5419;DHT22;2732;52.092;11.556;2024-01-15T20:27:29;0.80;99.90
5419;DHT22;2732;52.092;11.556;2024-01-15T20:32:31;0.80;99.90
5419;DHT22;2732;52.092;11.556;2024-01-15T20:37:33;0.80;99.90
5419;DHT22;2732;52.092;11.556;2024-01-15T20:42:34;0.80;99.90
5419;DHT22;2732;52.092;11.556;2024-01-15T20:47:34;0.80;99.90
5419;DHT22;2732;52.092;11.556;2024-01-15T20:52:35;0.80;99.90
5419;DHT22;2732;52.092;11.556;2024-01-15T20:57:36;0.80;99.90
5419;DHT22;2732;52.092;11.556;2024-01-15T21:02:36;0.80;99.90
5419;DHT22;2732;52.092;11.556;2024-01-15T21:07:37;0.80;99.90
5419;DHT22;2732;52.092;11.556;2024-01-15T21:12:37;0.80;99.90
5419;DHT22;2732;52.092;11.556;2024-01-15T21:17:38;0.80;99.90
5419;DHT22;2732;52.092;11.556;2024-01-15T21:22:39;0.80;99.90
5419;DHT22;2732;52.092;11.556;2024-01-15T21:27:39;0.80;99.90
5419;DHT22;2732;52.092;11.556;2024-01-15T21:32:41;0.80;99.90
5419;DHT22;2732;52.092;11.556;2024-01-15T21:37:42;0.80;99.90
5419;DHT22;2732;52.092;11.556;2024-01-15T21:42:43;0.80;99.90
5419;DHT22;2732;52.092;11.556;2024-01-15T21:47:44;0.70;99.90
5419;DHT22;2732;52.092;11.556;2024-01-15T21:52:44;0.70;99.90
5419;DHT22;2732;52.092;11.556;2024-01-15T21:57:45;0.70;99.90
5419;DHT22;2732;52.092;11.556;2024-01-15T22:02:46;0.60;99.90
5419;DHT22;2732;52.092;11.556;2024-01-15T22:07:47;0.70;99.90
5419;DHT22;2732;52.092;11.556;2024-01-15T22:12:47;0.60;99.90
5419;DHT22;2732;52.092;11.556;2024-01-15T22:17:48;0.60;99.90
5419;DHT22;2732;52.092;11.556;2024-01-15T22:22:49;0.60;99.90
5419;DHT22;2732;52.092;11.556;2024-01-15T22:27:50;0.60;99.90
5419;DHT22;2732;52.092;11.556;2024-01-15T22:32:50;0.60;99.90
5419;DHT22;2732;52.092;11.556;2024-01-15T22:37:51;0.50;99.90
5419;DHT22;2732;52.092;11.556;2024-01-15T22:42:52;0.50;99.90
5419;DHT22;2732;52.092;11.556;2024-01-15T22:47:52;0.50;99.90
5419;DHT22;2732;52.092;11.556;2024-01-15T22:52:53;0.50;99.90
5419;DHT22;2732;52.092;11.556;2024-01-15T22:57:53;0.50;99.90
5419;DHT22;2732;52.092;11.556;2024-01-15T23:02:54;0.40;99.90
5419;DHT22;2732;52.092;11.556;2024-01-15T23:07:57;0.40;99.90
5419;DHT22;2732;52.092;11.556;2024-01-15T23:12:58;0.40;99.90
5419;DHT22;2732;52.092;11.556;2024-01-15T23:17:59;0.40;99.90
5419;DHT22;2732;52.092;11.556;2024-01-15T23:22:59;0.40;99.90
5419;DHT22;2732;52.092;11.556;2024-01-15T23:28:01;0.40;99.90
5419;DHT22;2732;52.092;11.556;2024-01-15T23:33:02;0.40;99.90
5419;DHT22;2732;52.092;11.556;2024-01-15T23:38:02;0.50;99.90
5419;DHT22;2732;52.092;11.556;2024-01-15T23:43:03;0.50;99.90
5419;DHT22;2732;52.092;11.556;2024-01-15T23:48:04;0.50;99.90
5419;DHT22;2732;52.092;11.556;2024-01-15T23:53:06;0.50;99.90
5419;DHT22;2732;52.092;11.556;2024-01-15T23:58:07;0.50;99.90
